Time;durP1;ratioP1;P1;durP2;ratioP2;P2;SDS_P1;SDS_P2;PMS_P1;PMS_P2;Temp;Humidity;BMP_temperature;BMP_pressure;BME280_temperature;BME280_humidity;BME280_pressure;Samples;Min_cycle;Max_cycle;Signal;HPM_P1;HPM_P2
2021/04/24 00:02:32;;;;;;;8.95;5.15;;;;;;;6.08;84.14;100567.88;1798832;79;21371;-58
2021/04/24 00:05:46;;;;;;;7.65;5.22;;;;;;;6.07;84.14;100571.60;1798669;79;21362;-58
2021/04/24 00:08:52;;;;;;;7.83;6.53;;;;;;;6.06;84.16;100571.22;1798847;80;21339;-57
2021/04/24 00:11:58;;;;;;;9.10;5.40;;;;;;;6.05;84.23;100568.16;1798913;79;21189;-57
2021/04/24 00:15:07;;;;;;;10.15;5.35;;;;;;;6.04;84.23;100566.45;1798832;79;21717;-56
2021/04/24 00:18:13;;;;;;;7.62;4.62;;;;;;;6.01;84.12;100576.22;1798961;79;21224;-57
2021/04/24 00:21:20;;;;;;;7.65;4.80;;;;;;;5.96;84.09;100578.02;1798735;79;21212;-57
2021/04/24 00:24:26;;;;;;;9.38;5.08;;;;;;;5.91;84.08;100570.78;1798805;79;21363;-57
2021/04/24 00:27:31;;;;;;;8.35;4.65;;;;;;;5.86;84.07;100570.38;1798867;79;21173;-57
2021/04/24 00:30:37;;;;;;;8.88;5.75;;;;;;;5.82;84.09;100572.13;1798733;79;21224;-57
2021/04/24 00:33:45;;;;;;;9.65;5.50;;;;;;;5.78;84.14;100566.60;1798573;80;21185;-58
2021/04/24 00:36:51;;;;;;;7.50;5.00;;;;;;;5.76;84.20;100574.02;1798781;79;21231;-57
2021/04/24 00:39:58;;;;;;;8.33;5.50;;;;;;;5.71;84.21;100574.94;1798773;79;21745;-56
2021/04/24 00:43:05;;;;;;;10.23;5.55;;;;;;;5.68;84.30;100572.02;1798832;80;21201;-57
2021/04/24 00:46:18;;;;;;;8.50;4.95;;;;;;;5.65;84.35;100571.43;1794623;79;21209;-58
2021/04/24 00:49:22;;;;;;;9.18;5.30;;;;;;;5.62;84.37;100573.07;1791407;79;21431;-58
2021/04/24 00:52:28;;;;;;;7.67;5.67;;;;;;;5.59;84.41;100567.92;1790846;80;21343;-58
2021/04/24 00:55:34;;;;;;;7.83;5.30;;;;;;;5.55;84.44;100568.70;1791093;79;21268;-58
2021/04/24 00:58:40;;;;;;;8.30;5.45;;;;;;;5.53;84.42;100570.72;1791211;80;21281;-58
2021/04/24 01:01:46;;;;;;;8.43;5.33;;;;;;;5.48;84.46;100558.55;1791036;80;21335;-57
2021/04/24 01:04:51;;;;;;;8.70;5.40;;;;;;;5.46;84.47;100553.73;1791206;79;21225;-57
2021/04/24 01:07:57;;;;;;;9.75;5.45;;;;;;;5.42;84.45;100557.75;1791260;80;21393;-57
2021/04/24 01:11:03;;;;;;;9.45;5.87;;;;;;;5.38;84.44;100553.58;1791090;79;21351;-56
2021/04/24 01:14:11;;;;;;;13.03;6.33;;;;;;;5.34;84.47;100554.86;1791189;79;21877;-57
2021/04/24 01:17:18;;;;;;;11.78;7.28;;;;;;;5.31;84.51;100552.43;1791266;80;21339;-58
2021/04/24 01:20:26;;;;;;;12.43;8.18;;;;;;;5.28;84.55;100566.28;1791204;79;21738;-59
2021/04/24 01:23:32;;;;;;;12.73;8.10;;;;;;;5.24;84.61;100559.39;1791219;80;21375;-58
2021/04/24 01:26:37;;;;;;;12.63;8.80;;;;;;;5.22;84.71;100553.23;1790925;80;21355;-58
2021/04/24 01:29:46;;;;;;;11.90;8.20;;;;;;;5.20;84.85;100555.25;1791119;79;21407;-58
2021/04/24 01:32:51;;;;;;;13.80;9.23;;;;;;;5.20;84.98;100559.33;1791225;80;21340;-58
2021/04/24 01:35:57;;;;;;;20.40;11.73;;;;;;;5.19;85.09;100557.58;1791334;79;21406;-57
2021/04/24 01:39:02;;;;;;;24.65;11.80;;;;;;;5.17;85.19;100560.44;1791208;79;21178;-57
2021/04/24 01:42:08;;;;;;;17.73;11.25;;;;;;;5.15;85.27;100554.80;1791258;80;21181;-57
2021/04/24 01:45:16;;;;;;;16.30;11.12;;;;;;;5.14;85.33;100569.37;1791134;79;21478;-57
2021/04/24 01:48:21;;;;;;;17.02;11.05;;;;;;;5.11;85.33;100567.77;1800602;78;21724;-57
2021/04/24 01:51:27;;;;;;;17.23;12.25;;;;;;;5.09;85.36;100566.20;1804430;79;21339;-58
2021/04/24 01:54:33;;;;;;;17.62;11.55;;;;;;;5.06;85.39;100565.13;1804174;79;21358;-57
2021/04/24 01:57:40;;;;;;;17.42;12.03;;;;;;;5.04;85.38;100572.53;1804172;79;21346;-58
2021/04/24 02:00:52;;;;;;;18.57;12.25;;;;;;;5.01;85.31;100566.03;1803753;79;21230;-57
2021/04/24 02:03:58;;;;;;;18.42;13.00;;;;;;;5.01;85.29;100575.52;1804172;79;21339;-57
2021/04/24 02:07:04;;;;;;;18.35;13.50;;;;;;;4.99;85.23;100580.22;1804395;79;21359;-57
2021/04/24 02:10:11;;;;;;;19.57;13.32;;;;;;;4.99;85.07;100585.64;1804199;79;21394;-57
2021/04/24 02:13:21;;;;;;;15.85;12.23;;;;;;;4.99;84.98;100590.58;1804094;79;21410;-58
2021/04/24 02:16:27;;;;;;;19.73;13.30;;;;;;;5.02;84.88;100594.86;1804140;79;21259;-57
2021/04/24 02:19:33;;;;;;;20.35;12.15;;;;;;;5.04;84.72;100600.53;1803434;79;21205;-57
2021/04/24 02:22:40;;;;;;;18.00;12.58;;;;;;;5.06;84.54;100600.39;1803763;79;21374;-60
2021/04/24 02:25:47;;;;;;;20.40;14.03;;;;;;;5.09;84.41;100597.41;1804262;79;21362;-57
2021/04/24 02:28:53;;;;;;;19.80;13.05;;;;;;;5.12;84.30;100599.33;1803902;79;21176;-58
2021/04/24 02:31:59;;;;;;;22.48;14.25;;;;;;;5.16;84.01;100609.42;1804296;79;21335;-58
2021/04/24 02:35:07;;;;;;;20.30;13.53;;;;;;;5.18;83.80;100614.22;1786826;79;21323;-57
2021/04/24 02:38:13;;;;;;;18.98;13.32;;;;;;;5.20;83.61;100613.59;1803894;79;21323;-59
2021/04/24 02:41:19;;;;;;;16.77;12.30;;;;;;;5.22;83.34;100623.79;1804031;79;21884;-58
2021/04/24 02:44:24;;;;;;;18.95;12.55;;;;;;;5.22;83.08;100615.66;1804204;79;21338;-58
2021/04/24 02:47:30;;;;;;;19.73;12.37;;;;;;;5.20;82.82;100627.16;1803868;79;21342;-58
2021/04/24 02:50:35;;;;;;;22.70;12.78;;;;;;;5.16;82.62;100628.41;1793541;79;21434;-59
2021/04/24 02:53:41;;;;;;;18.02;11.38;;;;;;;5.14;82.41;100648.06;1793425;80;21257;-57
2021/04/24 02:56:48;;;;;;;14.68;10.45;;;;;;;5.13;82.22;100639.53;1793561;80;21347;-57
2021/04/24 02:59:53;;;;;;;15.08;10.10;;;;;;;5.13;81.86;100644.48;1793467;79;21213;-57
2021/04/24 03:03:17;;;;;;;13.78;8.83;;;;;;;5.15;81.55;100642.98;1793504;80;21350;-58
2021/04/24 03:06:23;;;;;;;15.28;8.33;;;;;;;5.19;81.17;100640.34;1793517;79;21352;-57
2021/04/24 03:09:29;;;;;;;15.60;8.63;;;;;;;5.25;80.64;100647.98;1793355;79;21899;-56
2021/04/24 03:12:35;;;;;;;13.03;8.23;;;;;;;5.34;80.28;100646.66;1793425;80;21308;-58
2021/04/24 03:15:40;;;;;;;11.70;8.03;;;;;;;5.42;79.76;100645.45;1793406;79;21367;-58
2021/04/24 03:18:47;;;;;;;13.75;6.80;;;;;;;5.48;79.00;100656.28;1793581;80;21348;-58
2021/04/24 03:21:54;;;;;;;10.15;7.10;;;;;;;5.48;78.67;100652.20;1793498;80;21166;-60
2021/04/24 03:25:00;;;;;;;13.40;8.45;;;;;;;5.48;78.45;100664.42;1793373;79;21813;-58
2021/04/24 03:28:04;;;;;;;11.60;7.62;;;;;;;5.45;78.12;100663.34;1793615;80;21754;-59
2021/04/24 03:31:10;;;;;;;14.45;7.15;;;;;;;5.41;77.80;100670.02;1793337;79;21205;-58
2021/04/24 03:34:15;;;;;;;15.78;8.25;;;;;;;5.37;77.64;100666.74;1793399;79;21335;-58
2021/04/24 03:37:21;;;;;;;12.80;7.20;;;;;;;5.33;77.56;100675.27;1793163;80;21863;-59
2021/04/24 03:40:26;;;;;;;15.05;7.97;;;;;;;5.29;77.54;100673.83;1793551;79;21320;-57
2021/04/24 03:43:33;;;;;;;14.55;7.28;;;;;;;5.26;77.57;100679.05;1793343;80;21343;-58
2021/04/24 03:46:38;;;;;;;9.35;6.40;;;;;;;5.27;77.66;100685.31;1793363;80;21177;-58
2021/04/24 03:49:44;;;;;;;9.65;6.25;;;;;;;5.30;77.72;100691.83;1795430;79;21418;-58
2021/04/24 03:52:49;;;;;;;9.95;6.35;;;;;;;5.32;77.63;100700.22;1804297;79;21386;-59
2021/04/24 03:55:55;;;;;;;9.90;6.10;;;;;;;5.37;77.59;100705.23;1804425;79;21366;-58
2021/04/24 03:59:01;;;;;;;12.93;5.87;;;;;;;5.41;77.60;100699.88;1804876;79;21567;-57
2021/04/24 04:02:07;;;;;;;8.50;5.95;;;;;;;5.46;77.54;100715.27;1804197;79;21332;-57
2021/04/24 04:05:13;;;;;;;15.03;6.05;;;;;;;5.51;77.33;100708.45;1804135;79;21363;-58
2021/04/24 04:08:20;;;;;;;9.88;6.12;;;;;;;5.53;76.81;100721.41;1803440;79;21180;-57
2021/04/24 04:11:26;;;;;;;9.95;6.10;;;;;;;5.58;76.50;100723.19;1803597;79;21162;-59
2021/04/24 04:14:34;;;;;;;8.35;5.78;;;;;;;5.61;76.12;100724.27;1804059;79;21366;-59
2021/04/24 04:17:41;;;;;;;8.60;5.00;;;;;;;5.66;75.94;100727.44;1804158;79;21385;-58
2021/04/24 04:20:50;;;;;;;6.97;4.55;;;;;;;5.73;75.50;100720.97;1803811;79;21877;-59
2021/04/24 04:23:55;;;;;;;6.53;4.10;;;;;;;5.79;74.72;100727.20;1804250;79;21200;-58
2021/04/24 04:27:00;;;;;;;7.42;4.58;;;;;;;5.85;74.25;100728.08;1804040;79;21903;-58
2021/04/24 04:30:07;;;;;;;8.45;4.83;;;;;;;5.92;73.79;100726.52;1804018;79;21764;-59
2021/04/24 04:33:14;;;;;;;7.72;4.30;;;;;;;5.97;73.57;100732.39;1803456;79;21429;-60
2021/04/24 04:36:20;;;;;;;9.50;4.40;;;;;;;6.03;72.77;100723.68;1803707;79;21295;-61
2021/04/24 04:39:26;;;;;;;8.08;4.12;;;;;;;6.08;72.43;100722.77;1802983;79;21374;-59
2021/04/24 04:42:33;;;;;;;7.85;4.33;;;;;;;6.12;71.84;100726.91;1803982;79;21394;-58
2021/04/24 04:45:39;;;;;;;7.70;4.05;;;;;;;6.18;71.37;100732.31;1803911;79;21352;-58
2021/04/24 04:48:44;;;;;;;7.80;4.00;;;;;;;6.21;71.02;100728.82;1803935;79;21342;-58
2021/04/24 04:51:50;;;;;;;6.50;3.37;;;;;;;6.26;70.69;100735.19;1802714;79;21350;-58
2021/04/24 04:54:57;;;;;;;6.97;3.92;;;;;;;6.31;70.47;100730.20;1803418;79;21259;-58
2021/04/24 04:58:05;;;;;;;8.35;4.08;;;;;;;6.36;70.16;100745.08;1803219;79;22011;-58
2021/04/24 05:01:11;;;;;;;10.05;4.05;;;;;;;6.42;70.52;100730.08;1803699;79;21398;-59
2021/04/24 05:04:18;;;;;;;5.87;3.65;;;;;;;6.49;70.32;100742.95;1803981;79;21319;-58
2021/04/24 05:07:25;;;;;;;6.67;3.75;;;;;;;6.57;70.40;100747.19;1803572;79;21856;-58
2021/04/24 05:10:33;;;;;;;9.08;5.37;;;;;;;6.61;70.31;100748.61;1802997;79;21363;-59
2021/04/24 05:13:38;;;;;;;8.43;4.40;;;;;;;6.67;70.15;100752.16;1804039;79;21185;-59
2021/04/24 05:16:46;;;;;;;8.83;4.08;;;;;;;6.71;69.78;100750.84;1803714;79;21709;-60
2021/04/24 05:19:52;;;;;;;7.87;3.92;;;;;;;6.76;70.02;100754.01;1803389;79;21363;-59
2021/04/24 05:22:58;;;;;;;7.87;3.37;;;;;;;6.82;69.50;100760.76;1803556;79;21323;-60
2021/04/24 05:26:04;;;;;;;5.53;3.17;;;;;;;6.84;69.06;100758.23;1803740;79;21331;-60
2021/04/24 05:29:11;;;;;;;6.35;3.10;;;;;;;6.88;68.45;100754.73;1803903;79;21351;-59
2021/04/24 05:32:17;;;;;;;4.20;3.15;;;;;;;6.90;67.69;100768.55;1803863;79;21833;-59
2021/04/24 05:35:25;;;;;;;7.58;2.95;;;;;;;6.94;67.06;100771.35;1803540;79;21334;-60
2021/04/24 05:38:30;;;;;;;8.78;3.50;;;;;;;6.96;66.78;100780.21;1803866;79;21406;-58
2021/04/24 05:41:36;;;;;;;5.55;2.95;;;;;;;6.99;66.86;100765.48;1803237;79;21358;-59
2021/04/24 05:44:41;;;;;;;6.37;3.05;;;;;;;7.03;66.79;100777.28;1803937;79;21718;-59
2021/04/24 05:47:55;;;;;;;4.85;2.70;;;;;;;7.07;66.17;100773.78;1803583;79;21347;-60
2021/04/24 05:51:01;;;;;;;5.72;3.12;;;;;;;7.11;65.90;100784.23;1803062;79;21402;-58
2021/04/24 05:54:06;;;;;;;8.00;3.42;;;;;;;7.13;65.53;100778.16;1765025;81;21283;-58
2021/04/24 05:57:13;;;;;;;5.72;3.40;;;;;;;7.20;65.78;100780.64;1765479;81;21292;-59
2021/04/24 06:00:26;;;;;;;5.37;3.00;;;;;;;7.26;65.80;100779.22;1765662;81;21228;-58
2021/04/24 06:03:31;;;;;;;8.25;3.00;;;;;;;7.31;65.93;100780.97;1765524;81;21190;-60
2021/04/24 06:06:40;;;;;;;6.37;3.72;;;;;;;7.39;64.12;100789.27;1765737;81;21236;-58
2021/04/24 06:09:45;;;;;;;5.90;2.60;;;;;;;7.45;64.04;100800.98;1765415;81;21217;-61
2021/04/24 06:12:55;;;;;;;4.08;2.40;;;;;;;7.50;63.75;100794.06;1765597;81;21216;-58
2021/04/24 06:16:00;;;;;;;3.72;2.47;;;;;;;7.54;63.71;100798.23;1750089;81;21244;-60
2021/04/24 06:19:06;;;;;;;3.83;2.25;;;;;;;7.60;62.36;100800.37;1765678;81;21204;-59
2021/04/24 06:22:13;;;;;;;3.52;2.70;;;;;;;7.66;61.07;100791.25;1765592;81;21241;-59
2021/04/24 06:25:20;;;;;;;5.22;3.00;;;;;;;7.72;61.66;100794.74;1765390;81;21227;-58
2021/04/24 06:28:26;;;;;;;5.00;2.55;;;;;;;7.77;60.91;100786.46;1764728;81;21260;-60
2021/04/24 06:31:31;;;;;;;4.55;3.00;;;;;;;7.81;61.33;100788.40;1764722;81;21193;-59
2021/04/24 06:34:36;;;;;;;8.83;3.17;;;;;;;7.90;62.32;100784.77;1764755;81;21229;-59
2021/04/24 06:37:44;;;;;;;5.92;2.90;;;;;;;8.04;61.52;100787.88;1765165;81;21197;-60
2021/04/24 06:40:49;;;;;;;5.08;2.98;;;;;;;8.09;60.29;100801.05;1765678;81;21351;-60
2021/04/24 06:43:55;;;;;;;4.53;2.77;;;;;;;8.12;60.01;100792.08;1765640;81;21217;-59
2021/04/24 06:47:02;;;;;;;4.35;3.12;;;;;;;8.20;60.54;100795.41;1765488;81;21213;-59
2021/04/24 06:50:09;;;;;;;5.45;2.60;;;;;;;8.29;60.92;100791.83;1765338;81;21252;-59
2021/04/24 06:53:15;;;;;;;4.60;2.70;;;;;;;8.36;60.59;100794.28;1763452;78;21229;-60
2021/04/24 06:56:22;;;;;;;5.95;3.20;;;;;;;8.42;60.04;100792.34;1755471;81;21240;-59
2021/04/24 06:59:27;;;;;;;4.40;2.80;;;;;;;8.48;59.86;100782.17;1755237;81;21229;-59
2021/04/24 07:02:35;;;;;;;3.15;2.40;;;;;;;8.55;59.79;100781.89;1754171;81;21355;-57
2021/04/24 07:05:39;;;;;;;5.87;3.08;;;;;;;8.61;59.04;100785.41;1736553;82;21217;-59
2021/04/24 07:08:46;;;;;;;3.80;2.42;;;;;;;8.59;58.39;100783.33;1735736;82;21841;-59
2021/04/24 07:11:53;;;;;;;5.40;2.40;;;;;;;8.59;57.38;100790.15;1738121;82;21154;-59
2021/04/24 07:15:00;;;;;;;3.80;2.35;;;;;;;8.60;57.16;100804.13;1735336;82;21280;-59
2021/04/24 07:18:09;;;;;;;5.70;2.67;;;;;;;8.59;56.25;100787.42;1735653;82;21221;-60
2021/04/24 07:21:15;;;;;;;2.67;2.02;;;;;;;8.59;55.80;100783.33;1740021;82;21237;-59
2021/04/24 07:24:20;;;;;;;3.50;2.47;;;;;;;8.60;56.40;100779.08;1735687;82;21292;-58
2021/04/24 07:27:26;;;;;;;3.02;2.10;;;;;;;8.62;56.40;100776.20;1736205;82;21241;-58
2021/04/24 07:30:34;;;;;;;3.05;1.72;;;;;;;8.66;55.16;100773.49;1737245;82;21213;-59
2021/04/24 07:33:40;;;;;;;4.20;2.00;;;;;;;8.70;54.72;100784.47;1736097;82;21442;-58
2021/04/24 07:36:46;;;;;;;3.67;2.00;;;;;;;8.69;54.12;100774.05;1737711;82;21667;-58
2021/04/24 07:39:55;;;;;;;5.37;2.00;;;;;;;8.72;53.47;100782.45;1736497;82;21398;-58
2021/04/24 07:42:59;;;;;;;3.05;1.80;;;;;;;8.76;53.63;100781.12;1736052;82;21214;-57
2021/04/24 07:46:05;;;;;;;4.80;2.35;;;;;;;8.78;52.98;100788.66;1736781;82;21367;-61
2021/04/24 07:49:12;;;;;;;3.58;2.27;;;;;;;8.83;54.83;100791.25;1738114;82;21237;-59
2021/04/24 07:52:19;;;;;;;2.98;2.00;;;;;;;8.97;54.88;100783.05;1736444;82;21351;-58
2021/04/24 07:55:24;;;;;;;3.00;1.77;;;;;;;9.09;53.93;100796.81;1770973;79;21430;-59
2021/04/24 07:58:30;;;;;;;4.55;2.05;;;;;;;9.17;52.61;100791.42;1793692;80;21800;-58
2021/04/24 08:01:37;;;;;;;4.00;2.10;;;;;;;9.19;51.96;100794.86;1793773;80;21190;-57
2021/04/24 08:04:42;;;;;;;5.30;2.42;;;;;;;9.25;52.79;100794.23;1793999;80;21358;-58
2021/04/24 08:07:48;;;;;;;9.70;2.02;;;;;;;9.41;53.38;100793.50;1793937;80;21571;-56
2021/04/24 08:10:55;;;;;;;3.85;1.92;;;;;;;9.60;53.52;100802.38;1793454;80;21213;-58
2021/04/24 08:14:00;;;;;;;4.97;1.92;;;;;;;9.75;52.64;100804.87;1793642;80;21185;-59
2021/04/24 08:17:06;;;;;;;3.47;1.90;;;;;;;9.85;50.55;100803.39;1793774;80;21185;-58
2021/04/24 08:20:14;;;;;;;2.45;1.67;;;;;;;9.87;49.78;100802.23;1793908;80;21408;-58
2021/04/24 08:23:20;;;;;;;4.45;1.77;;;;;;;9.93;48.74;100839.00;1793894;79;21387;-62
2021/04/24 08:26:24;;;;;;;2.45;1.67;;;;;;;10.01;48.04;100822.14;1793698;80;21339;-59
2021/04/24 08:29:29;;;;;;;3.15;1.90;;;;;;;10.10;48.71;100807.52;1793590;80;21220;-59
2021/04/24 08:32:36;;;;;;;3.98;1.60;;;;;;;10.22;48.98;100814.95;1793647;80;21339;-60
2021/04/24 08:35:43;;;;;;;3.72;1.80;;;;;;;10.31;48.14;100815.33;1793939;80;21382;-59
2021/04/24 08:38:49;;;;;;;4.65;2.35;;;;;;;10.37;47.10;100807.81;1793980;80;21351;-58
2021/04/24 08:41:53;;;;;;;5.33;1.55;;;;;;;10.40;47.67;100804.78;1793911;80;21386;-59
2021/04/24 08:44:59;;;;;;;2.90;1.60;;;;;;;10.34;46.33;100806.28;1793879;80;21797;-58
2021/04/24 08:48:04;;;;;;;2.45;1.40;;;;;;;10.27;46.44;100809.84;1793769;80;21327;-59
2021/04/24 08:51:09;;;;;;;1.85;1.20;;;;;;;10.27;46.31;100795.66;1794011;80;21852;-57
2021/04/24 08:54:15;;;;;;;6.35;1.50;;;;;;;10.36;46.11;100799.27;1793785;80;21332;-59
2021/04/24 08:57:22;;;;;;;2.62;1.42;;;;;;;10.41;45.66;100814.20;1793633;79;21391;-62
2021/04/24 09:00:36;;;;;;;4.37;1.75;;;;;;;10.38;45.68;100801.34;1793650;80;21221;-58
2021/04/24 09:03:40;;;;;;;2.67;1.40;;;;;;;10.33;45.88;100798.23;1793998;80;21197;-60
2021/04/24 09:06:46;;;;;;;2.60;1.50;;;;;;;10.24;45.68;100804.70;1761598;81;21412;-59
2021/04/24 09:09:53;;;;;;;4.00;1.55;;;;;;;10.07;45.54;100792.80;1761575;81;22193;-60
2021/04/24 09:12:59;;;;;;;5.08;1.75;;;;;;;10.04;44.92;100792.23;1763062;80;21253;-58
2021/04/24 09:16:06;;;;;;;2.52;1.70;;;;;;;10.07;45.41;100797.38;1770333;80;21196;-60
2021/04/24 09:19:34;;;;;;;3.62;2.00;;;;;;;10.08;45.12;100818.29;1761857;80;21347;-59
2021/04/24 09:22:41;;;;;;;3.30;1.62;;;;;;;10.09;45.37;100797.61;1775566;80;21402;-59
2021/04/24 09:25:50;;;;;;;3.05;1.70;;;;;;;10.10;46.46;100804.78;1771559;79;21944;-58
2021/04/24 09:28:56;;;;;;;2.95;1.45;;;;;;;10.15;45.65;100802.92;1768360;81;21335;-59
2021/04/24 09:32:26;;;;;;;4.42;2.00;;;;;;;10.08;45.18;100808.22;1791859;80;21343;-59
2021/04/24 09:35:32;;;;;;;3.98;1.85;;;;;;;10.04;46.18;100795.83;1792216;80;21271;-59
2021/04/24 09:38:40;;;;;;;3.17;1.82;;;;;;;10.13;46.20;100811.30;1793531;80;21419;-60
2021/04/24 09:41:46;;;;;;;5.92;1.85;;;;;;;10.11;46.33;100801.05;1793353;80;21221;-60
2021/04/24 09:44:53;;;;;;;3.35;2.20;;;;;;;10.10;46.00;100807.52;1793300;80;21252;-59
2021/04/24 09:47:58;;;;;;;4.45;1.98;;;;;;;10.20;46.43;100811.00;1793449;80;21189;-60
2021/04/24 09:51:11;;;;;;;2.47;1.52;;;;;;;10.28;45.46;100816.52;1793412;80;21402;-59
2021/04/24 09:54:16;;;;;;;7.08;2.30;;;;;;;10.33;45.43;100810.05;1791775;79;21205;-59
2021/04/24 09:57:28;;;;;;;3.37;2.10;;;;;;;10.46;46.13;100813.70;1779936;79;21427;-59
2021/04/24 10:00:36;;;;;;;4.72;2.42;;;;;;;10.59;45.35;100805.89;1768176;81;21741;-59
2021/04/24 10:03:49;;;;;;;7.00;3.17;;;;;;;10.81;46.61;100803.91;1768972;81;21213;-61
2021/04/24 10:06:54;;;;;;;;;;;;;;;10.86;45.48;100823.94;1771527;80;21300;-58
2021/04/24 10:09:59;;;;;;;4.53;2.40;;;;;;;10.59;45.50;100805.89;1768829;81;20209;-60
2021/04/24 10:13:11;;;;;;;3.12;2.30;;;;;;;10.42;45.79;100820.00;1768829;80;21240;-58
2021/04/24 10:16:16;;;;;;;3.92;2.75;;;;;;;10.32;46.28;100802.84;1769393;80;21402;-59
2021/04/24 10:19:23;;;;;;;4.95;2.83;;;;;;;10.12;46.88;100823.27;1769583;80;21402;-60
2021/04/24 10:22:32;;;;;;;3.85;2.52;;;;;;;9.91;49.01;100828.75;1768825;80;21201;-60
2021/04/24 10:25:38;;;;;;;4.00;2.50;;;;;;;9.70;49.80;100851.48;1769839;80;21213;-61
2021/04/24 10:28:45;;;;;;;3.10;2.30;;;;;;;9.51;53.40;100866.70;1776088;79;21355;-58
2021/04/24 10:31:50;;;;;;;5.72;2.27;;;;;;;9.20;55.39;100849.83;1771776;80;21362;-59
2021/04/24 10:34:57;;;;;;;3.47;2.52;;;;;;;8.99;55.94;100841.11;1770708;80;21381;-59
2021/04/24 10:38:02;;;;;;;5.33;3.30;;;;;;;8.97;56.60;100840.39;1772431;81;21350;-60
2021/04/24 10:41:07;;;;;;;3.62;2.70;;;;;;;9.14;56.47;100842.27;1771748;81;21279;-59
2021/04/24 10:44:21;;;;;;;4.08;2.62;;;;;;;9.48;55.73;100841.05;1772315;80;21354;-59
2021/04/24 10:47:54;;;;;;;4.25;2.67;;;;;;;9.63;54.70;100836.72;1772553;81;21358;-61
2021/04/24 10:51:00;;;;;;;3.58;2.37;;;;;;;9.55;54.94;100870.81;1772899;80;21408;-58
2021/04/24 10:54:21;;;;;;;3.85;2.75;;;;;;;9.21;55.10;100891.18;1776415;79;21293;-58
2021/04/24 10:58:08;;;;;;;5.92;3.00;;;;;;;8.91;56.01;100872.41;1771003;81;21338;-59
2021/04/24 11:01:14;;;;;;;3.67;2.70;;;;;;;8.82;57.40;100882.86;1771587;81;21339;-59
2021/04/24 11:04:48;;;;;;;3.98;2.40;;;;;;;8.80;55.83;100885.74;1772365;80;21441;-59
2021/04/24 11:07:56;;;;;;;4.12;2.55;;;;;;;8.74;55.58;100895.04;1772057;81;21205;-59
2021/04/24 11:11:09;;;;;;;4.87;3.20;;;;;;;8.97;55.74;100882.19;1772182;80;21366;-59
2021/04/24 11:14:15;;;;;;;3.90;2.65;;;;;;;9.45;54.93;100872.27;1771734;80;21196;-57
2021/04/24 11:17:20;;;;;;;4.03;2.52;;;;;;;9.87;54.37;100859.66;1771959;81;21362;-59
2021/04/24 11:20:58;;;;;;;4.00;2.30;;;;;;;10.08;53.15;100857.45;1755401;81;21734;-60
2021/04/24 11:24:06;;;;;;;3.27;2.00;;;;;;;10.34;51.88;100868.35;1771934;80;21449;-58
2021/04/24 11:27:12;;;;;;;2.62;1.85;;;;;;;10.63;50.60;100864.75;1771577;81;21397;-59
2021/04/24 11:30:58;;;;;;;3.52;1.32;;;;;;;10.80;48.52;100870.63;1771374;81;21377;-59
2021/04/24 11:34:03;;;;;;;2.15;1.20;;;;;;;10.92;43.91;100861.61;1772187;80;21729;-59
2021/04/24 11:37:31;;;;;;;2.20;1.30;;;;;;;10.91;41.24;100854.43;1771998;81;21263;-65
2021/04/24 11:40:37;;;;;;;2.92;1.75;;;;;;;11.02;41.60;100854.12;1772446;80;21244;-59
2021/04/24 11:43:43;;;;;;;1.80;1.32;;;;;;;11.44;41.56;100858.98;1772089;81;21350;-60
2021/04/24 11:46:55;;;;;;;3.83;1.45;;;;;;;11.65;41.36;100864.33;1771980;81;21535;-60
2021/04/24 11:50:00;;;;;;;2.35;1.55;;;;;;;11.63;42.69;100868.28;1772651;81;21240;-59
2021/04/24 11:53:05;;;;;;;4.00;2.10;;;;;;;11.48;42.76;100874.91;1772461;81;21378;-60
2021/04/24 11:56:12;;;;;;;4.58;1.52;;;;;;;11.18;43.39;100896.63;1772127;80;21354;-58
2021/04/24 11:59:18;;;;;;;2.65;1.55;;;;;;;10.97;42.05;100900.33;1771362;80;21304;-59
2021/04/24 12:02:33;;;;;;;4.20;2.20;;;;;;;10.74;41.02;100890.97;1772420;81;21410;-61
2021/04/24 12:05:36;;;;;;;5.05;2.05;;;;;;;10.49;45.44;100979.84;1772492;80;21232;-60
2021/04/24 12:08:43;;;;;;;3.17;2.40;;;;;;;9.94;50.07;100944.12;1770798;80;21204;-60
2021/04/24 12:12:04;;;;;;;3.45;2.60;;;;;;;9.46;52.86;100939.59;1772117;81;21181;-60
2021/04/24 12:15:28;;;;;;;3.12;2.20;;;;;;;9.16;54.10;100950.87;1800061;79;21374;-60
2021/04/24 12:18:37;;;;;;;;;;;;;;;8.79;55.35;100940.49;1805873;79;21204;-60
2021/04/24 12:21:43;;;;;;;5.60;2.20;;;;;;;8.49;55.91;100927.12;1803721;79;20292;-61
2021/04/24 12:25:11;;;;;;;3.05;2.30;;;;;;;8.49;57.13;100924.39;1801188;79;21685;-62
2021/04/24 12:28:20;;;;;;;6.95;3.30;;;;;;;8.81;57.75;100918.87;1771003;81;21217;-58
2021/04/24 12:31:31;;;;;;;3.65;2.17;;;;;;;9.29;57.00;100921.31;1771205;80;21376;-60
2021/04/24 12:34:37;;;;;;;4.20;2.55;;;;;;;9.55;55.52;100915.41;1771228;80;21383;-59
2021/04/24 12:37:42;;;;;;;2.85;2.10;;;;;;;9.76;55.62;100917.33;1770470;81;21378;-61
2021/04/24 12:40:54;;;;;;;2.27;2.02;;;;;;;9.93;55.26;100909.60;1803602;79;21362;-60
2021/04/24 12:43:59;;;;;;;3.85;2.62;;;;;;;10.02;54.54;100909.17;1773813;79;21356;-61
2021/04/24 12:47:05;;;;;;;3.65;2.52;;;;;;;10.03;53.80;100901.30;1780401;79;21183;-60
2021/04/24 12:50:22;;;;;;;3.50;2.42;;;;;;;10.09;53.39;100892.48;1802719;79;21361;-60
2021/04/24 12:53:44;;;;;;;5.70;2.83;;;;;;;10.38;53.47;100900.73;1802548;79;21351;-60
2021/04/24 12:56:50;;;;;;;4.12;2.37;;;;;;;10.85;52.20;100881.08;1803046;79;21817;-59
2021/04/24 13:00:10;;;;;;;3.27;2.30;;;;;;;11.19;49.82;100890.98;1798011;79;21327;-59
2021/04/24 13:03:40;;;;;;;5.28;2.30;;;;;;;11.21;48.15;100877.11;1770333;79;21350;-59
2021/04/24 13:06:48;;;;;;;4.62;2.05;;;;;;;11.25;48.61;100881.22;1794340;79;21476;-60
2021/04/24 13:09:54;;;;;;;4.47;2.20;;;;;;;11.18;47.51;100877.45;1802418;79;21346;-58
2021/04/24 13:13:01;;;;;;;3.85;2.20;;;;;;;11.10;46.93;100876.06;1786274;79;21340;-60
2021/04/24 13:16:07;;;;;;;4.33;2.42;;;;;;;11.19;45.91;100879.16;1801950;79;21703;-59
2021/04/24 13:19:13;;;;;;;3.60;2.20;;;;;;;11.30;46.11;100877.47;1803496;78;21351;-61
2021/04/24 13:22:18;;;;;;;3.85;2.30;;;;;;;11.57;45.78;100872.55;1803246;79;21331;-60
2021/04/24 13:25:41;;;;;;;3.02;1.85;;;;;;;11.56;45.66;100872.72;1804038;79;21888;-59
2021/04/24 13:28:47;;;;;;;6.15;1.90;;;;;;;11.44;44.53;100879.54;1804164;79;21256;-59
2021/04/24 13:32:13;;;;;;;4.12;2.10;;;;;;;11.27;45.53;100881.41;1803932;79;21352;-60
2021/04/24 13:35:19;;;;;;;3.72;2.00;;;;;;;11.22;43.10;100879.69;1769957;80;21910;-60
2021/04/24 13:38:25;;;;;;;3.10;1.82;;;;;;;11.09;44.08;100877.93;1771081;79;21837;-59
2021/04/24 13:41:31;;;;;;;3.72;2.25;;;;;;;11.01;42.65;100896.22;1799304;79;21350;-60
2021/04/24 13:44:37;;;;;;;3.77;2.05;;;;;;;10.91;41.71;100876.34;1801383;79;21331;-59
2021/04/24 13:47:42;;;;;;;4.65;1.95;;;;;;;10.89;42.43;100887.97;1803491;79;21201;-60
2021/04/24 13:50:47;;;;;;;4.05;1.75;;;;;;;10.95;42.34;100891.41;1803717;79;21347;-60
2021/04/24 13:53:54;;;;;;;2.77;1.65;;;;;;;11.00;42.34;100891.77;1803626;79;21824;-58
2021/04/24 13:57:01;;;;;;;5.03;2.15;;;;;;;11.24;42.46;100886.36;1803612;79;21213;-60
2021/04/24 14:00:07;;;;;;;5.40;2.90;;;;;;;11.77;41.31;100884.05;1803317;79;21232;-59
2021/04/24 14:03:14;;;;;;;7.33;3.17;;;;;;;12.24;40.67;100886.94;1791266;78;21395;-60
2021/04/24 14:06:20;;;;;;;6.53;3.45;;;;;;;12.40;40.04;100887.75;1771740;81;21370;-59
2021/04/24 14:09:28;;;;;;;5.37;2.47;;;;;;;11.99;40.06;100881.98;1771968;80;21868;-60
2021/04/24 14:12:34;;;;;;;3.35;2.40;;;;;;;11.34;41.09;100887.92;1771749;81;21288;-59
2021/04/24 14:15:41;;;;;;;4.33;2.40;;;;;;;10.81;42.09;100887.94;1771661;81;21433;-59
2021/04/24 14:18:49;;;;;;;4.60;2.00;;;;;;;10.45;43.97;100901.78;1768512;81;21720;-60
2021/04/24 14:21:54;;;;;;;3.22;1.80;;;;;;;10.21;44.85;100911.20;1768695;80;21364;-60
2021/04/24 14:25:01;;;;;;;3.62;2.20;;;;;;;10.05;44.69;100919.26;1781462;79;21578;-60
2021/04/24 14:28:06;;;;;;;2.37;1.60;;;;;;;10.13;45.20;100910.31;1803185;79;21359;-61
2021/04/24 14:31:13;;;;;;;2.17;1.35;;;;;;;10.15;43.56;100905.02;1803453;79;21366;-60
2021/04/24 14:34:19;;;;;;;2.75;1.40;;;;;;;10.02;42.12;100894.96;1803375;79;21201;-59
2021/04/24 14:37:25;;;;;;;4.85;1.55;;;;;;;9.93;42.54;100914.20;1802748;79;21338;-62
2021/04/24 14:40:33;;;;;;;3.02;1.50;;;;;;;9.96;41.16;100904.31;1804090;79;21414;-61